• Join FlightAware (Why Join?)
  • Login
  • US Flag 
 
09:53AM EST


 

Airport Tracker/Info


-or-


 

Live Flight TrackerFlight Track Log ✈ SWA1586 ✈ 29-Apr-2013 ✈ KDEN - KSTL

Flight Track Log - Related Links

Times and Time Zones

All times are in EDT time to prevent confusion due to time zone crossing. See the SWA1586 flight status page for this flight to view local times or setup timezone preferences in your user account.

Time Position Orientation Groundspeed Altitude Reporting Facility
EDT Latitude Longitude Course Direction KTS MPH feet Rate Location/Type
11:41PM 39.7833 -104.5833 113° Southeast 244 281 9,800  Level Denver TRACON
11:42PM 39.7833 -104.5000 90° East 282 325 10,900 2,460 Climbing Denver TRACON
11:43PM 39.7681 -104.3769 99° East 344 396 14,400 3,540 Climbing Denver Center
11:44PM 39.7664 -104.2414 91° East 386 444 18,200 3,900 Climbing Denver Center
11:45PM 39.7653 -104.0858 90° East 402 463 22,500 2,340 Climbing Denver Center
11:46PM 39.7459 -103.7878 113° Southeast  Level FlightAware Approximate
11:46PM 39.7633 -103.9350 91° East 414 476 23,000  Level Denver Center
11:47PM 39.7464 -103.7858 98° East 418 481 25,700 2,520 Climbing Denver Center
11:48PM 39.7319 -103.6283 97° East 430 495 28,200 2,580 Climbing Denver Center
11:49PM 39.7189 -103.4619 96° East 456 525 31,000 2,280 Climbing Denver Center
11:50PM 39.7103 -103.2903 94° East 471 542 32,900 2,160 Climbing Denver Center
11:51PM 39.7064 -103.1175 92° East 476 548 35,500 2,400 Climbing Denver Center
11:52PM 39.7031 -102.9472 91° East 470 541 37,800 1,980 Climbing Denver Center
11:53PM 39.6961 -102.7797 93° East 462 532 39,600 1,560 Climbing Denver Center
11:54PM 39.6900 -102.5892 92° East 460 529 41,000 660 Climbing Denver Center
11:55PM 39.6850 -102.4328 92° East 455 524 41,000  Level Denver Center
11:56PM 39.6789 -102.2775 93° East 451 519 41,000  Level Denver Center
11:57PM 39.6731 -102.0961 92° East 451 519 41,000  Level Denver Center
11:58PM 39.6669 -101.9408 93° East 451 519 41,000  Level Denver Center
11:59PM 39.6608 -101.7844 93° East 454 522 41,000  Level Denver Center
12:00AM 39.6531 -101.6022 93° East 455 524 41,000  Level Denver Center
12:01AM 39.6439 -101.3936 93° East 455 524 41,000  Level Denver Center
12:02AM 39.6372 -101.2367 93° East 457 526 41,000  Level Denver Center
12:03AM 39.6294 -101.0794 94° East 458 527 41,000  Level Denver Center
12:04AM 39.6214 -100.8986 93° East 454 522 41,000  Level Denver Center
12:05AM 39.6136 -100.7433 94° East 452 520 41,000  Level Denver Center
12:06AM 39.6042 -100.5581 94° East 460 529 41,000  Level Denver Center
12:07AM 39.5964 -100.3997 94° East 461 531 41,000  Level Denver Center
12:08AM 39.5878 -100.2408 94° East 462 532 41,000  Level Denver Center
12:09AM 39.5778 -100.0569 94° East 460 529 41,000  Level Denver Center
12:10AM 39.5694 -99.9094 94° East 456 525 41,000  Level Denver Center
12:11AM 39.5594 -99.7467 95° East 455 524 41,000  Level Denver Center
12:12AM 39.5508 -99.5856 94° East 451 519 41,000  Level Denver Center
12:13AM 39.5389 -99.3922 95° East 450 518 41,000  Level Denver Center
12:14AM 39.5289 -99.2303 95° East 453 521 41,000  Level Denver Center
12:16AM 39.5186 -99.0656 95° East 458 527 41,000  Level Denver Center
12:17AM 39.5072 -98.9033 95° East 456 525 41,000  Level Denver Center
12:18AM 39.4969 -98.7408 95° East 454 522 41,000  Level Denver Center
12:19AM 39.4856 -98.5778 95° East 455 524 41,000  Level Denver Center
12:20AM 39.4750 -98.4158 95° East 453 521 41,000  Level Denver Center
12:21AM 39.4633 -98.2539 95° East 453 521 41,000  Level Denver Center
12:22AM 39.4425 -97.9839 96° East 451 519 41,000  Level Kansas City Center
12:23AM 39.4333 -97.8297 94° East 457 526 41,000  Level Kansas City Center
12:24AM 39.4214 -97.6686 95° East 452 520 41,000  Level Kansas City Center
12:25AM 39.4069 -97.4947 96° East 446 513 41,000  Level Kansas City Center
12:26AM 39.3950 -97.3425 96° East 444 511 41,000  Level Kansas City Center
12:27AM 39.3822 -97.1897 96° East 446 513 41,000  Level Kansas City Center
12:28AM 39.3678 -97.0144 96° East 443 510 41,000  Level Kansas City Center
12:29AM 39.3553 -96.8633 96° East 442 509 41,000  Level Kansas City Center
12:30AM 39.3433 -96.7133 96° East 440 506 41,000  Level Kansas City Center
12:31AM 39.3297 -96.5372 96° East 441 507 41,000  Level Kansas City Center
12:32AM 39.3153 -96.3811 97° East 443 510 41,000  Level Kansas City Center
12:33AM 39.3017 -96.2225 96° East 444 511 41,000  Level Kansas City Center
12:34AM 39.2844 -96.0533 97° East 455 524 41,000  Level Kansas City Center
12:35AM 39.2706 -95.8983 97° East 454 522 41,000  Level Kansas City Center
12:36AM 39.2569 -95.7439 96° East 452 520 41,000  Level Kansas City Center
12:37AM 39.2403 -95.5661 97° East 448 516 41,000  Level Kansas City Center
12:38AM 39.2253 -95.4036 97° East 452 520 41,000  Level Kansas City Center
12:39AM 39.2089 -95.2439 97° East 451 519 41,000  Level Kansas City Center
12:40AM 39.1919 -95.0733 97° East 447 514 41,000  Level Kansas City Center
12:41AM 39.1775 -94.9164 97° East 445 512 41,000  Level Kansas City Center
12:42AM 39.1611 -94.7633 98° East 450 518 41,000  Level Kansas City Center
12:43AM 39.1467 -94.6111 97° East 448 516 41,000  Level Kansas City Center
12:44AM 39.1278 -94.4342 98° East 447 514 41,000  Level Kansas City Center
12:45AM 39.1114 -94.2814 98° East 450 518 41,000  Level Kansas City Center
12:46AM 39.0956 -94.1272 97° East 452 520 41,000  Level Kansas City Center
12:47AM 39.0847 -93.9728 95° East 453 521 41,000  Level Kansas City Center
12:48AM 39.0714 -93.7922 95° East 453 521 41,000  Level Kansas City Center
12:49AM 39.0589 -93.6406 96° East 448 516 41,000  Level Kansas City Center
12:50AM 39.0464 -93.4869 96° East 448 516 41,000  Level Kansas City Center
12:52AM 39.0367 -93.3367 95° East 444 511 41,000  Level Kansas City Center
12:53AM 39.0197 -93.1478 97° East 446 513 41,000 -300 Level Kansas City Center
12:54AM 39.0053 -92.9894 97° East 449 517 40,400 -1,440 Descending Kansas City Center
12:55AM 38.9933 -92.8428 96° East 450 518 38,200 -2,460 Descending Kansas City Center
12:56AM 38.9792 -92.6858 97° East 446 513 35,500 -2,640 Descending Kansas City Center
12:57AM 38.9644 -92.5275 97° East 443 510 32,900 -1,740 Descending Kansas City Center
12:58AM 38.9497 -92.3631 97° East 451 519 32,100 -1,380 Descending Kansas City Center
12:59AM 38.9333 -92.1864 97° East 476 548 30,100 -2,460 Descending Kansas City Center
01:00AM 38.9178 -92.0211 97° East 471 542 27,200 -2,820 Descending Kansas City Center
01:01AM 38.9022 -91.8622 97° East 460 529 24,500 -2,640 Descending Kansas City Center
01:02AM 38.8872 -91.7106 97° East 446 513 21,900 -2,580 Descending Kansas City Center
01:03AM 38.8731 -91.5658 97° East 431 496 19,300 -2,520 Descending Kansas City Center
01:04AM 38.8603 -91.4303 97° East 407 468 16,900 -2,460 Descending Kansas City Center
01:05AM 38.8467 -91.2992 98° East 386 444 14,400 -2,460 Descending Kansas City Center
01:06AM 38.8336 -91.1731 98° East 367 422 12,000 -1,980 Descending Kansas City Center
01:07AM 38.8219 -91.0581 97° East 335 386 10,500 -1,440 Descending Kansas City Center
01:08AM 38.8150 -90.9533 95° East 302 348 9,100 -1,980 Descending Kansas City Center
01:09AM 38.8133 -90.8525 91° East 289 333 6,600 -2,040 Descending Kansas City Center
01:10AM 38.8100 -90.7483 92° East 290 334 5,000 -1,020 Descending Kansas City Center
01:11AM 38.8069 -90.6556 92° East 266 306 4,600 -600 Descending Kansas City Center
01:12AM 38.8044 -90.5789 92° East 225 259 3,900 -900 Descending Kansas City Center
01:13AM 38.8017 -90.5058 93° East 212 244 2,800 -1,080 Descending Kansas City Center
01:14AM 38.7867 -90.4456 108° East 189 217 1,800 -900 Descending Kansas City Center
01:15AM 38.7678 -90.4061 122° Southeast 153 176 1,100 -600 Descending Kansas City Center
01:16AM 38.7486 -90.3658 121° Southeast 135 155 600 -540 Descending Kansas City Center
01:18AM 38.7487 -90.3700 270° West  Level Estimated